createdAt,value
2016-03-10T09:51:41.621Z,1015.85
2016-03-10T09:52:41.608Z,1015.83
2016-03-10T09:53:41.595Z,1015.84
2016-03-10T09:54:41.597Z,1015.84
2016-03-10T09:55:41.585Z,1015.86
2016-03-10T09:56:41.572Z,1015.9
2016-03-10T09:57:41.575Z,1015.85
2016-03-10T09:58:41.578Z,1015.83
2016-03-10T09:59:41.565Z,1015.85
2016-03-10T10:00:41.567Z,1015.93
2016-03-10T10:01:41.569Z,1015.87
2016-03-10T10:02:41.557Z,1015.87
2016-03-10T10:03:41.544Z,1015.9
2016-03-10T10:04:41.547Z,1015.94
2016-03-10T10:05:41.564Z,1016.05
2016-03-10T10:06:41.536Z,1015.94
2016-03-10T10:07:41.539Z,1015.89
2016-03-10T10:08:41.525Z,1015.91
2016-03-10T10:09:41.513Z,1015.92
2016-03-10T10:10:41.516Z,1015.91
2016-03-10T10:11:41.502Z,1015.92
2016-03-10T10:12:41.505Z,1015.92
2016-03-10T10:13:41.493Z,1015.95
2016-03-10T10:14:41.495Z,1015.96
2016-03-10T10:15:41.482Z,1015.94
2016-03-10T10:16:41.484Z,1016.04
2016-03-10T10:17:41.472Z,1015.96
2016-03-10T10:18:41.474Z,1016.1
2016-03-10T10:19:41.462Z,1016.03
2016-03-10T10:20:41.465Z,1016.05
2016-03-10T10:21:41.451Z,1016.18
2016-03-10T10:22:41.454Z,1016.17
2016-03-10T10:23:41.441Z,1016.17
2016-03-10T10:24:41.444Z,1016.23
2016-03-10T10:25:41.431Z,1016.22
2016-03-10T10:26:41.417Z,1016.21
2016-03-10T10:27:41.420Z,1016.2
2016-03-10T10:28:41.408Z,1016.17
2016-03-10T10:29:41.411Z,1016.16
2016-03-10T10:30:41.398Z,1016.16
2016-03-10T10:31:41.400Z,1016.17
2016-03-10T10:32:41.387Z,1016.19
2016-03-10T10:33:41.375Z,1016.18
2016-03-10T10:34:41.377Z,1016.26
2016-03-10T10:35:41.364Z,1016.24
2016-03-10T10:36:41.367Z,1016.25
2016-03-10T10:37:41.353Z,1016.27
2016-03-10T10:38:41.966Z,1016.22
2016-03-10T10:39:42.250Z,1016.21
2016-03-10T10:40:41.346Z,1016.24
2016-03-10T10:41:41.333Z,1016.21
2016-03-10T10:42:41.321Z,1016.27
2016-03-10T10:43:41.338Z,1016.22
2016-03-10T10:44:41.326Z,1016.26
2016-03-10T10:45:41.329Z,1016.26
2016-03-10T10:46:41.315Z,1016.21
2016-03-10T10:47:41.506Z,1016.3
2016-03-10T10:48:41.290Z,1016.34
2016-03-10T10:49:41.293Z,1016.29
2016-03-10T10:50:41.279Z,1016.28
2016-03-10T10:52:41.676Z,1016.26
2016-03-10T10:53:41.271Z,1016.28
2016-03-10T10:54:41.509Z,1016.28
2016-03-10T10:55:41.262Z,1016.24
2016-03-10T10:56:41.265Z,1016.28
2016-03-10T10:57:41.251Z,1016.29
2016-03-10T10:58:41.239Z,1016.33
2016-03-10T10:59:41.241Z,1016.28
2016-03-10T11:00:41.228Z,1016.26
2016-03-10T11:01:41.231Z,1016.31
2016-03-10T11:02:41.218Z,1016.37
2016-03-10T11:03:41.221Z,1016.33
2016-03-10T11:04:41.208Z,1016.35
2016-03-10T11:05:41.211Z,1016.32
2016-03-10T11:06:41.197Z,1016.3
2016-03-10T11:07:41.184Z,1016.35
2016-03-10T11:08:41.186Z,1016.35
2016-03-10T11:09:41.175Z,1016.41
2016-03-10T11:10:41.177Z,1016.33
2016-03-10T11:11:41.163Z,1016.33
2016-03-10T11:12:41.166Z,1016.34
2016-03-10T11:13:41.154Z,1016.31
2016-03-10T11:14:41.157Z,1016.34
2016-03-10T11:15:41.144Z,1016.33
2016-03-10T11:16:41.146Z,1016.3
2016-03-10T11:17:41.149Z,1016.32
2016-03-10T11:18:41.136Z,1016.33
2016-03-10T11:19:41.138Z,1016.32
2016-03-10T11:20:41.126Z,1016.38
2016-03-10T11:21:41.128Z,1016.4
2016-03-10T11:22:41.115Z,1016.43
2016-03-10T11:23:42.087Z,1016.42
2016-03-10T11:24:41.105Z,1016.38
2016-03-10T11:25:41.107Z,1016.37
2016-03-10T11:26:42.032Z,1016.39
2016-03-10T11:27:41.098Z,1016.4
2016-03-10T11:28:41.366Z,1016.42
2016-03-10T11:29:41.072Z,1016.38
2016-03-10T11:30:41.075Z,1016.42
2016-03-10T11:31:41.078Z,1016.44
2016-03-10T11:32:41.064Z,1016.46
2016-03-10T11:33:41.067Z,1016.43
2016-03-10T11:34:42.289Z,1016.5
2016-03-10T11:35:41.056Z,1016.58
2016-03-10T11:36:41.044Z,1016.49
2016-03-10T11:37:41.047Z,1016.48
2016-03-10T11:38:41.050Z,1016.49
2016-03-10T11:39:41.036Z,1016.48
2016-03-10T11:40:41.039Z,1016.47
2016-03-10T11:41:41.025Z,1016.52
2016-03-10T11:42:41.028Z,1016.45
2016-03-10T11:43:41.016Z,1016.48
2016-03-10T11:44:41.018Z,1016.48
2016-03-10T11:45:41.021Z,1016.53
2016-03-10T11:46:41.008Z,1016.55
2016-03-10T11:47:40.995Z,1016.56
2016-03-10T11:48:40.998Z,1016.53
2016-03-10T11:49:41.001Z,1016.55
2016-03-10T11:50:40.988Z,1016.52
2016-03-10T11:51:40.990Z,1016.53
2016-03-10T11:52:40.993Z,1016.51
2016-03-10T11:53:40.980Z,1016.54
2016-03-10T11:54:40.983Z,1016.51
2016-03-10T11:55:40.970Z,1016.44
2016-03-10T11:56:40.973Z,1016.45
2016-03-10T11:57:42.116Z,1016.47
2016-03-10T11:58:40.963Z,1016.52
2016-03-10T11:59:40.949Z,1016.53
2016-03-10T12:00:40.952Z,1016.55
2016-03-10T12:01:41.049Z,1016.45
2016-03-10T12:02:40.942Z,1016.49
2016-03-10T12:03:40.945Z,1016.52
2016-03-10T12:04:40.931Z,1016.53
2016-03-10T12:05:40.935Z,1016.51
2016-03-10T12:06:41.436Z,1016.46
2016-03-10T12:07:40.940Z,1016.5
2016-03-10T12:08:40.928Z,1016.5
2016-03-10T12:09:40.929Z,1016.5
2016-03-10T12:10:40.917Z,1016.44
2016-03-10T12:11:40.919Z,1016.48
2016-03-10T12:12:40.921Z,1016.43
2016-03-10T12:13:40.908Z,1016.43
2016-03-10T12:14:40.911Z,1016.46
2016-03-10T12:15:40.899Z,1016.34
2016-03-10T12:16:40.901Z,1016.35
2016-03-10T12:17:40.905Z,1016.36
2016-03-10T12:18:40.891Z,1016.37
2016-03-10T12:19:40.894Z,1016.32
2016-03-10T12:20:40.881Z,1016.38
2016-03-10T12:21:40.899Z,1016.35
2016-03-10T12:22:40.886Z,1016.39
2016-03-10T12:23:40.874Z,1016.35
2016-03-10T12:24:40.876Z,1016.36
2016-03-10T12:25:40.879Z,1016.33
2016-03-10T12:26:40.866Z,1016.37
2016-03-10T12:27:40.868Z,1016.39
2016-03-10T12:28:40.871Z,1016.39
2016-03-10T12:29:40.859Z,1016.4
2016-03-10T12:30:40.846Z,1016.35
2016-03-10T12:31:40.864Z,1016.33
2016-03-10T12:32:40.835Z,1016.33
2016-03-10T12:33:40.838Z,1016.28
2016-03-10T12:34:40.840Z,1016.27
2016-03-10T12:35:40.828Z,1016.32
2016-03-10T12:36:40.831Z,1016.3
2016-03-10T12:37:40.817Z,1016.33
2016-03-10T12:38:40.820Z,1016.35
2016-03-10T12:39:40.823Z,1016.34
2016-03-10T12:40:40.810Z,1016.34
2016-03-10T12:41:41.156Z,1016.37
2016-03-10T12:43:40.803Z,1016.34
2016-03-10T12:44:40.789Z,1016.31
2016-03-10T12:45:40.792Z,1016.27
2016-03-10T12:46:41.405Z,1016.32
2016-03-10T12:47:40.782Z,1016.31
2016-03-10T12:48:40.769Z,1016.31
2016-03-10T12:49:40.771Z,1016.31
2016-03-10T12:50:40.790Z,1016.32
2016-03-10T12:51:41.105Z,1016.29
2016-03-10T12:52:40.936Z,1016.28
2016-03-10T12:53:40.752Z,1016.31
2016-03-10T12:54:41.160Z,1016.34
2016-03-10T12:55:41.522Z,1016.3
2016-03-10T12:56:40.743Z,1016.36
2016-03-10T12:57:40.730Z,1016.38
2016-03-10T12:58:40.732Z,1016.38
2016-03-10T12:59:40.720Z,1016.35
2016-03-10T13:00:40.723Z,1016.31
2016-03-10T13:01:40.726Z,1016.33
2016-03-10T13:02:40.713Z,1016.33
2016-03-10T13:03:40.701Z,1016.34
2016-03-10T13:04:40.734Z,1016.41
2016-03-10T13:05:40.690Z,1016.43
2016-03-10T13:06:40.692Z,1016.46
2016-03-10T13:07:40.695Z,1016.45
2016-03-10T13:08:40.682Z,1016.45
2016-03-10T13:09:40.670Z,1016.46
2016-03-10T13:10:40.672Z,1016.45
2016-03-10T13:11:40.675Z,1016.5
2016-03-10T13:12:40.661Z,1016.47
2016-03-10T13:13:40.655Z,1016.52
2016-03-10T13:14:40.658Z,1016.56
2016-03-10T13:15:40.661Z,1016.49
2016-03-10T13:17:40.635Z,1016.5
2016-03-10T13:18:40.638Z,1016.55
2016-03-10T13:19:40.641Z,1016.56
2016-03-10T13:20:40.940Z,1016.61
2016-03-10T13:21:40.630Z,1016.61
2016-03-10T13:22:40.618Z,1016.57
2016-03-10T13:23:40.823Z,1016.59
2016-03-10T13:24:40.607Z,1016.57
2016-03-10T13:25:41.562Z,1016.6
2016-03-10T13:26:40.613Z,1016.57
2016-03-10T13:27:40.615Z,1016.6
2016-03-10T13:28:40.602Z,1016.62
2016-03-10T13:29:40.620Z,1016.63
2016-03-10T13:30:40.591Z,1016.59
2016-03-10T13:31:40.594Z,1016.58
2016-03-10T13:32:40.597Z,1016.57
2016-03-10T13:33:40.584Z,1016.56
2016-03-10T13:34:40.586Z,1016.56
2016-03-10T13:35:40.574Z,1016.61
2016-03-10T13:36:40.578Z,1016.55
2016-03-10T13:37:40.579Z,1016.52
2016-03-10T13:38:40.566Z,1016.57
2016-03-10T13:39:40.553Z,1016.61
2016-03-10T13:40:40.556Z,1016.63
2016-03-10T13:41:40.559Z,1016.62
2016-03-10T13:42:40.547Z,1016.64
2016-03-10T13:43:40.549Z,1016.7
2016-03-10T13:44:40.552Z,1016.75
2016-03-10T13:45:40.539Z,1016.79
2016-03-10T13:46:40.541Z,1016.8
2016-03-10T13:47:40.528Z,1016.8
2016-03-10T13:48:40.530Z,1016.79
2016-03-10T13:49:40.533Z,1016.8
2016-03-10T13:50:40.520Z,1016.76
2016-03-10T13:51:40.774Z,1016.71
2016-03-10T13:52:40.510Z,1016.72
2016-03-10T13:53:40.529Z,1016.73
2016-03-10T13:54:40.501Z,1016.67
2016-03-10T13:55:40.518Z,1016.64
2016-03-10T13:56:40.506Z,1016.59
2016-03-10T13:57:40.774Z,1016.61
2016-03-10T13:58:40.511Z,1016.61
2016-03-10T13:59:40.498Z,1016.6
2016-03-10T14:00:41.703Z,1016.63
2016-03-10T14:01:40.487Z,1016.66
2016-03-10T14:02:41.397Z,1016.6
2016-03-10T14:03:41.509Z,1016.55
2016-03-10T14:04:40.481Z,1016.63
2016-03-10T14:05:40.483Z,1016.59
2016-03-10T14:06:40.482Z,1016.6
2016-03-10T14:07:40.516Z,1016.59
2016-03-10T14:08:40.472Z,1016.57
2016-03-10T14:09:40.459Z,1016.6
2016-03-10T14:10:41.446Z,1016.64
2016-03-10T14:11:41.229Z,1016.64
2016-03-10T14:12:40.450Z,1016.75
2016-03-10T14:13:41.531Z,1016.69
2016-03-10T14:14:40.440Z,1016.82
2016-03-10T14:15:40.443Z,1016.79
2016-03-10T14:16:40.446Z,1016.75
2016-03-10T14:17:40.448Z,1016.84
2016-03-10T14:18:40.436Z,1016.92
2016-03-10T14:19:40.438Z,1016.83
2016-03-10T14:20:40.425Z,1016.89
2016-03-10T14:21:40.428Z,1016.94
2016-03-10T14:22:40.431Z,1016.9
2016-03-10T14:23:40.418Z,1016.9
2016-03-10T14:24:40.420Z,1016.91
2016-03-10T14:25:40.408Z,1016.9
2016-03-10T14:26:40.410Z,1016.86
2016-03-10T14:27:40.397Z,1016.86
2016-03-10T14:28:40.400Z,1016.9
2016-03-10T14:29:40.388Z,1016.81
2016-03-10T14:30:40.390Z,1016.82
2016-03-10T14:31:40.377Z,1016.77
2016-03-10T14:32:40.379Z,1016.77
2016-03-10T14:33:40.398Z,1016.79
2016-03-10T14:34:40.369Z,1016.86
2016-03-10T14:35:41.169Z,1016.84
2016-03-10T14:36:40.360Z,1016.82
2016-03-10T14:37:40.753Z,1016.85
2016-03-10T14:38:40.349Z,1016.88
2016-03-10T14:39:40.352Z,1016.94
2016-03-10T14:40:40.354Z,1016.86
2016-03-10T14:41:40.341Z,1016.85
2016-03-10T14:42:40.344Z,1016.84
2016-03-10T14:43:40.331Z,1016.84
2016-03-10T14:45:40.321Z,1016.84
2016-03-10T14:46:40.309Z,1016.84
2016-03-10T14:47:40.312Z,1016.83
2016-03-10T14:48:40.532Z,1016.82
2016-03-10T14:49:40.348Z,1016.77
2016-03-10T14:50:40.304Z,1016.87
2016-03-10T14:51:40.290Z,1016.83
2016-03-10T14:52:40.293Z,1016.77
2016-03-10T14:53:40.280Z,1016.76
2016-03-10T14:54:40.283Z,1016.74
2016-03-10T14:55:40.269Z,1016.75
2016-03-10T14:56:40.272Z,1016.75
2016-03-10T14:57:40.275Z,1016.82
2016-03-10T14:58:40.261Z,1016.75
2016-03-10T14:59:40.264Z,1016.79
2016-03-10T15:00:40.252Z,1016.75
2016-03-10T15:01:40.254Z,1016.81
2016-03-10T15:02:40.257Z,1016.84
2016-03-10T15:03:40.244Z,1016.79
2016-03-10T15:04:40.246Z,1016.82
2016-03-10T15:05:40.235Z,1016.81
2016-03-10T15:06:40.237Z,1016.88
2016-03-10T15:07:40.240Z,1016.87
2016-03-10T15:08:40.227Z,1016.88
2016-03-10T15:09:40.213Z,1016.88
2016-03-10T15:10:40.216Z,1016.93
2016-03-10T15:11:40.219Z,1016.89
2016-03-10T15:12:40.206Z,1016.89
2016-03-10T15:13:40.209Z,1016.93
2016-03-10T15:14:40.211Z,1016.92
2016-03-10T15:15:40.199Z,1016.89
2016-03-10T15:16:40.201Z,1016.9
2016-03-10T15:17:40.188Z,1016.92
2016-03-10T15:18:40.191Z,1016.93
2016-03-10T15:19:40.178Z,1016.95
2016-03-10T15:20:41.759Z,1016.97
2016-03-10T15:21:40.184Z,1016.94
2016-03-10T15:22:40.373Z,1016.93
2016-03-10T15:23:40.173Z,1016.93
2016-03-10T15:24:40.161Z,1016.95
2016-03-10T15:25:40.163Z,1016.97
2016-03-10T15:26:40.181Z,1016.96
2016-03-10T15:27:40.153Z,1016.96
2016-03-10T15:28:40.156Z,1016.95
2016-03-10T15:29:40.142Z,1017.01
2016-03-10T15:30:40.130Z,1016.97
2016-03-10T15:31:41.601Z,1016.97
2016-03-10T15:32:40.338Z,1017.02
2016-03-10T15:33:41.044Z,1017.04
2016-03-10T15:34:40.125Z,1017
2016-03-10T15:35:40.127Z,1017.01
2016-03-10T15:36:40.114Z,1017
2016-03-10T15:37:40.117Z,1017
2016-03-10T15:38:40.104Z,1016.99
2016-03-10T15:39:40.122Z,1017.03
2016-03-10T15:40:40.094Z,1016.98
2016-03-10T15:41:40.096Z,1017
2016-03-10T15:42:40.099Z,1017.03
2016-03-10T15:43:40.087Z,1017.07
2016-03-10T15:44:40.090Z,1017.03
2016-03-10T15:45:40.092Z,1017.02
2016-03-10T15:46:40.079Z,1017.08
2016-03-10T15:47:40.066Z,1017.16
2016-03-10T15:48:40.084Z,1017.09
2016-03-10T15:49:40.071Z,1017.17
2016-03-10T15:50:40.059Z,1017.12
2016-03-10T15:51:40.062Z,1017.11
2016-03-10T15:52:40.048Z,1017.11
2016-03-10T15:53:40.051Z,1017.15
2016-03-10T15:54:40.148Z,1017.11
2016-03-10T15:56:40.043Z,1017.16
2016-03-10T15:57:40.031Z,1017.16
2016-03-10T15:58:40.080Z,1017.19
2016-03-10T15:59:40.020Z,1017.16
2016-03-10T16:00:40.022Z,1017.15
2016-03-10T16:01:40.010Z,1017.19
2016-03-10T16:02:40.013Z,1017.2
2016-03-10T16:03:40.000Z,1017.21
2016-03-10T16:06:40.008Z,1017.29
2016-03-10T16:07:40.527Z,1017.29
2016-03-10T16:08:40.483Z,1017.32
2016-03-10T16:09:39.985Z,1017.35
2016-03-10T16:10:39.972Z,1017.29
2016-03-10T16:11:39.959Z,1017.29
2016-03-10T16:12:39.961Z,1017.32
2016-03-10T16:13:39.949Z,1017.35
2016-03-10T16:14:39.952Z,1017.3
2016-03-10T16:15:39.938Z,1017.3
2016-03-10T16:16:39.941Z,1017.35
2016-03-10T16:17:39.929Z,1017.32
2016-03-10T16:18:39.931Z,1017.33
2016-03-10T16:19:39.917Z,1017.34
2016-03-10T16:20:39.921Z,1017.34
2016-03-10T16:21:39.908Z,1017.34
2016-03-10T16:22:39.910Z,1017.37
2016-03-10T16:23:39.897Z,1017.35
2016-03-10T16:24:39.900Z,1017.33
2016-03-10T16:25:39.887Z,1017.41
2016-03-10T16:26:40.078Z,1017.45
2016-03-10T16:27:39.877Z,1017.32
2016-03-10T16:28:39.879Z,1017.34
2016-03-10T16:29:39.867Z,1017.36
2016-03-10T16:30:39.869Z,1017.35
2016-03-10T16:31:39.856Z,1017.41
2016-03-10T16:32:39.845Z,1017.42
2016-03-10T16:33:39.847Z,1017.41
2016-03-10T16:34:39.850Z,1017.42
2016-03-10T16:35:39.837Z,1017.43
2016-03-10T16:36:39.823Z,1017.43
2016-03-10T16:37:39.826Z,1017.5
2016-03-10T16:38:39.814Z,1017.48
2016-03-10T16:39:39.941Z,1017.47
2016-03-10T16:40:39.818Z,1017.51
2016-03-10T16:41:39.806Z,1017.48
2016-03-10T16:42:39.792Z,1017.48
2016-03-10T16:43:39.795Z,1017.49
2016-03-10T16:44:39.782Z,1017.46
2016-03-10T16:45:39.988Z,1017.5
2016-03-10T16:46:39.897Z,1017.49
2016-03-10T16:47:39.757Z,1017.46
2016-03-10T16:48:39.760Z,1017.48
2016-03-10T16:49:39.746Z,1017.51
2016-03-10T16:50:39.890Z,1017.58
2016-03-10T16:51:39.736Z,1017.54
2016-03-10T16:52:39.896Z,1017.5
2016-03-10T16:53:39.719Z,1017.56
2016-03-10T16:54:39.690Z,1017.58
2016-03-10T16:55:39.677Z,1017.6
2016-03-10T16:56:39.648Z,1017.63
2016-03-10T16:57:39.635Z,1017.63
2016-03-10T16:58:39.612Z,1017.62
2016-03-10T16:59:39.593Z,1017.59
2016-03-10T17:00:39.591Z,1017.66
2016-03-10T17:01:39.573Z,1017.65
2016-03-10T17:02:39.569Z,1017.69
2016-03-10T17:03:39.553Z,1017.67
2016-03-10T17:04:39.553Z,1017.72
2016-03-10T17:05:39.538Z,1017.71
2016-03-10T17:06:39.539Z,1017.76
2016-03-10T17:07:39.524Z,1017.72
2016-03-10T17:08:39.510Z,1017.78
2016-03-10T17:09:39.512Z,1017.77
2016-03-10T17:10:39.497Z,1017.84
2016-03-10T17:11:39.485Z,1017.9
2016-03-10T17:12:39.487Z,1017.82
2016-03-10T17:13:39.472Z,1017.81
2016-03-10T17:14:39.475Z,1017.84
2016-03-10T17:15:39.462Z,1017.82
2016-03-10T17:16:39.465Z,1017.96
2016-03-10T17:17:39.451Z,1017.89
2016-03-10T17:18:39.437Z,1017.92
2016-03-10T17:19:39.440Z,1017.92
2016-03-10T17:20:39.428Z,1017.94
2016-03-10T17:21:39.414Z,1017.95
2016-03-10T17:23:39.404Z,1018.06
2016-03-10T17:24:39.407Z,1018.04
2016-03-10T17:25:40.003Z,1018.04
2016-03-10T17:26:39.397Z,1018.07
2016-03-10T17:27:39.384Z,1018.12
2016-03-10T17:28:39.371Z,1018.15
2016-03-10T17:29:39.374Z,1018.21
2016-03-10T17:30:39.360Z,1018.15
2016-03-10T17:31:39.348Z,1018.12
2016-03-10T17:32:39.350Z,1018.25
2016-03-10T17:33:39.338Z,1018.2
2016-03-10T17:34:39.340Z,1018.19
2016-03-10T17:35:39.327Z,1018.22
2016-03-10T17:36:39.330Z,1018.25
2016-03-10T17:37:39.316Z,1018.25
2016-03-10T17:38:39.304Z,1018.26
2016-03-10T17:39:39.291Z,1018.3
2016-03-10T17:40:39.293Z,1018.38
2016-03-10T17:41:39.282Z,1018.33
2016-03-10T17:42:39.284Z,1018.37
2016-03-10T17:43:39.270Z,1018.35
2016-03-10T17:44:39.258Z,1018.33
2016-03-10T17:45:39.260Z,1018.31
2016-03-10T17:46:39.262Z,1018.41
2016-03-10T17:47:39.251Z,1018.37
2016-03-10T17:48:39.237Z,1018.39
2016-03-10T17:49:39.224Z,1018.37
2016-03-10T17:50:39.227Z,1018.37
2016-03-10T17:51:39.214Z,1018.37
2016-03-10T17:52:39.217Z,1018.37
2016-03-10T17:53:39.203Z,1018.36
2016-03-10T17:54:39.191Z,1018.38
2016-03-10T17:55:39.178Z,1018.46
2016-03-10T17:56:39.180Z,1018.41
2016-03-10T17:58:39.170Z,1018.45
2016-03-10T17:59:39.157Z,1018.4
2016-03-10T18:00:39.145Z,1018.41
2016-03-10T18:01:39.944Z,1018.46
2016-03-10T18:02:39.383Z,1018.46
2016-03-10T18:03:39.137Z,1018.48
2016-03-10T18:04:39.124Z,1018.47
2016-03-10T18:05:39.127Z,1018.63
2016-03-10T18:06:39.114Z,1018.46
2016-03-10T18:07:40.429Z,1018.56
2016-03-10T18:08:40.604Z,1018.67
2016-03-10T18:09:39.091Z,1018.57
2016-03-10T18:10:39.077Z,1018.6
2016-03-10T18:11:39.079Z,1018.53
2016-03-10T18:12:39.068Z,1018.57
2016-03-10T18:13:39.054Z,1018.66
2016-03-10T18:14:39.057Z,1018.66
2016-03-10T18:15:39.044Z,1018.64
2016-03-10T18:16:39.046Z,1018.71
2016-03-10T18:17:39.034Z,1018.69
2016-03-10T18:18:39.021Z,1018.72
2016-03-10T18:19:39.023Z,1018.73
2016-03-10T18:20:39.011Z,1018.72
2016-03-10T18:21:39.014Z,1018.75
2016-03-10T18:22:39.001Z,1018.68
2016-03-10T18:23:39.003Z,1018.76
2016-03-10T18:24:38.976Z,1018.7
2016-03-10T18:25:38.979Z,1018.79
2016-03-10T18:26:38.965Z,1018.78
2016-03-10T18:27:38.967Z,1018.72
2016-03-10T18:28:38.955Z,1018.76
2016-03-10T18:29:38.942Z,1018.75
2016-03-10T18:30:38.945Z,1018.78
2016-03-10T18:31:38.932Z,1018.8
2016-03-10T18:32:39.528Z,1018.79
2016-03-10T18:33:38.922Z,1018.82
2016-03-10T18:34:39.362Z,1018.84
2016-03-10T18:35:39.364Z,1018.8
2016-03-10T18:36:38.898Z,1018.84
2016-03-10T18:37:38.886Z,1018.86
2016-03-10T18:38:38.872Z,1018.89
2016-03-10T18:39:38.875Z,1018.83
2016-03-10T18:40:38.862Z,1018.88
2016-03-10T18:41:38.864Z,1018.92
2016-03-10T18:42:38.853Z,1018.9
2016-03-10T18:43:38.839Z,1018.89
2016-03-10T18:44:38.841Z,1018.89
2016-03-10T18:45:38.829Z,1018.89
2016-03-10T18:46:38.832Z,1018.92
2016-03-10T18:47:38.819Z,1018.97
2016-03-10T18:48:38.805Z,1018.98
2016-03-10T18:49:38.808Z,1018.98
2016-03-10T18:50:38.796Z,1019.05
2016-03-10T18:51:38.782Z,1019
2016-03-10T18:52:38.769Z,1019.02
2016-03-10T18:53:38.772Z,1019.04
2016-03-10T18:54:38.774Z,1019.16
2016-03-10T18:55:38.763Z,1019.08
2016-03-10T18:56:38.749Z,1019.12
2016-03-10T18:57:38.736Z,1019.11
2016-03-10T18:58:38.740Z,1019.1
2016-03-10T18:59:38.726Z,1019.11
2016-03-10T19:00:38.728Z,1019.14
2016-03-10T19:01:38.716Z,1019.12
2016-03-10T19:02:38.718Z,1019.13
2016-03-10T19:03:38.706Z,1019.15
2016-03-10T19:04:38.692Z,1019.13
2016-03-10T19:05:38.679Z,1019.18
2016-03-10T19:06:38.681Z,1019.17
2016-03-10T19:07:38.670Z,1019.2
2016-03-10T19:08:38.656Z,1019.23
2016-03-10T19:09:38.658Z,1019.17
2016-03-10T19:10:38.647Z,1019.14
2016-03-10T19:11:38.633Z,1019.32
2016-03-10T19:12:38.620Z,1019.19
2016-03-10T19:13:38.623Z,1019.23
2016-03-10T19:14:38.610Z,1019.28
2016-03-10T19:15:38.628Z,1019.24
2016-03-10T19:17:38.586Z,1019.28
2016-03-10T19:18:38.570Z,1019.22
2016-03-10T19:19:38.562Z,1019.25
2016-03-10T19:20:39.619Z,1019.28
2016-03-10T19:21:39.111Z,1019.29
2016-03-10T19:22:38.551Z,1019.31
2016-03-10T19:23:38.726Z,1019.34
2016-03-10T19:24:38.775Z,1019.37
2016-03-10T19:25:38.528Z,1019.36
2016-03-10T19:27:38.503Z,1019.42
2016-03-10T19:28:38.505Z,1019.39
2016-03-10T19:29:38.491Z,1019.4
2016-03-10T19:30:38.495Z,1019.43
2016-03-10T19:31:38.482Z,1019.43
2016-03-10T19:32:38.469Z,1019.45
2016-03-10T19:33:38.472Z,1019.48
2016-03-10T19:34:38.459Z,1019.47
2016-03-10T19:35:38.446Z,1019.46
2016-03-10T19:36:38.449Z,1019.48
2016-03-10T19:37:38.426Z,1019.45
2016-03-10T19:38:38.412Z,1019.45
2016-03-10T19:39:38.414Z,1019.46
2016-03-10T19:40:38.402Z,1019.49
2016-03-10T19:41:38.389Z,1019.53
2016-03-10T19:42:38.392Z,1019.5
2016-03-10T19:43:38.378Z,1019.56
2016-03-10T19:44:38.365Z,1019.53
2016-03-10T19:45:38.367Z,1019.56
2016-03-10T19:46:38.370Z,1019.57
2016-03-10T19:47:38.342Z,1019.62
2016-03-10T19:48:38.345Z,1019.61
2016-03-10T19:49:38.332Z,1019.61
2016-03-10T19:50:38.335Z,1019.61
2016-03-10T19:51:38.322Z,1019.6
2016-03-10T19:52:38.309Z,1019.6
2016-03-10T19:53:38.311Z,1019.62
2016-03-10T19:54:38.299Z,1019.63
2016-03-10T19:55:38.286Z,1019.66
2016-03-10T19:56:38.289Z,1019.63
2016-03-10T19:57:38.276Z,1019.63
2016-03-10T19:58:38.278Z,1019.69
2016-03-10T19:59:38.266Z,1019.69
2016-03-10T20:00:38.252Z,1019.66
2016-03-10T20:01:38.240Z,1019.7
2016-03-10T20:02:38.243Z,1019.69
2016-03-10T20:03:38.230Z,1019.71
2016-03-10T20:04:38.216Z,1019.7
2016-03-10T20:05:38.219Z,1019.7
2016-03-10T20:06:38.220Z,1019.72
2016-03-10T20:07:38.198Z,1019.72
2016-03-10T20:08:38.201Z,1019.67
2016-03-10T20:09:38.188Z,1019.74
2016-03-10T20:10:38.175Z,1019.69
2016-03-10T20:11:38.177Z,1019.67
2016-03-10T20:12:38.164Z,1019.69
2016-03-10T20:13:38.167Z,1019.69
2016-03-10T20:14:38.138Z,1019.71
2016-03-10T20:15:38.141Z,1019.72
2016-03-10T20:16:38.128Z,1019.76
2016-03-10T20:17:38.131Z,1019.76
2016-03-10T20:18:38.118Z,1019.82
2016-03-10T20:19:38.105Z,1019.78
2016-03-10T20:20:38.108Z,1019.77
2016-03-10T20:21:38.095Z,1019.82
2016-03-10T20:22:38.097Z,1019.84
2016-03-10T20:23:38.085Z,1019.9
2016-03-10T20:24:38.072Z,1019.88
2016-03-10T20:25:38.059Z,1019.86
2016-03-10T20:26:38.062Z,1019.83
2016-03-10T20:27:38.049Z,1019.84
2016-03-10T20:28:38.036Z,1019.88
2016-03-10T20:29:38.039Z,1019.85
2016-03-10T20:30:38.026Z,1019.86
2016-03-10T20:31:38.013Z,1019.87
2016-03-10T20:32:38.000Z,1019.89
2016-03-10T20:33:38.002Z,1019.84
2016-03-10T20:34:37.990Z,1019.88
2016-03-10T20:36:37.979Z,1019.88
2016-03-10T20:37:37.967Z,1019.87
2016-03-10T20:38:37.970Z,1019.88
2016-03-10T20:39:39.003Z,1019.88
2016-03-10T20:40:38.553Z,1019.96
2016-03-10T20:41:37.946Z,1019.87
2016-03-10T20:42:38.167Z,1019.91
2016-03-10T20:43:37.920Z,1019.88
2016-03-10T20:44:37.923Z,1019.88
2016-03-10T20:46:37.897Z,1019.85
2016-03-10T20:47:37.900Z,1019.82
2016-03-10T20:48:37.887Z,1019.84
2016-03-10T20:49:37.889Z,1019.86
2016-03-10T20:50:37.877Z,1019.92
2016-03-10T20:51:37.863Z,1019.89
2016-03-10T20:52:39.007Z,1019.92
2016-03-10T20:53:37.853Z,1019.87
2016-03-10T20:54:37.840Z,1019.9
2016-03-10T20:55:37.843Z,1019.91
2016-03-10T20:56:38.220Z,1019.92
2016-03-10T20:57:37.816Z,1019.95
2016-03-10T20:58:37.804Z,1019.95
2016-03-10T20:59:37.807Z,1019.93
2016-03-10T21:00:37.793Z,1019.92
2016-03-10T21:01:38.687Z,1019.91
2016-03-10T21:02:38.600Z,1019.89
2016-03-10T21:03:37.775Z,1019.87
2016-03-10T21:04:37.762Z,1019.86
2016-03-10T21:05:37.750Z,1019.9
2016-03-10T21:06:37.752Z,1019.85
2016-03-10T21:07:37.739Z,1019.86
2016-03-10T21:08:37.741Z,1019.88
2016-03-10T21:09:37.728Z,1019.88
2016-03-10T21:10:37.716Z,1019.89
2016-03-10T21:11:37.702Z,1019.88
2016-03-10T21:12:37.705Z,1019.88
2016-03-10T21:13:37.691Z,1019.93
2016-03-10T21:14:37.679Z,1019.93
2016-03-10T21:15:37.682Z,1019.93
2016-03-10T21:16:37.669Z,1019.93
2016-03-10T21:17:37.656Z,1019.95
2016-03-10T21:18:37.659Z,1019.95
2016-03-10T21:19:37.646Z,1019.95
2016-03-10T21:20:37.633Z,1019.97
2016-03-10T21:21:37.635Z,1019.98
2016-03-10T21:22:37.623Z,1019.95
2016-03-10T21:23:37.626Z,1019.94
2016-03-10T21:24:37.613Z,1019.93
2016-03-10T21:25:37.599Z,1019.92
2016-03-10T21:26:37.602Z,1019.92
2016-03-10T21:27:37.589Z,1019.92
2016-03-10T21:28:37.576Z,1019.91
2016-03-10T21:29:37.578Z,1019.89
2016-03-10T21:30:37.567Z,1019.89
2016-03-10T21:31:37.553Z,1019.92
2016-03-10T21:32:37.556Z,1019.94
2016-03-10T21:33:37.542Z,1019.94
2016-03-10T21:34:37.530Z,1019.94
2016-03-10T21:35:37.517Z,1019.92
2016-03-10T21:36:37.520Z,1019.93
2016-03-10T21:37:37.506Z,1019.97
2016-03-10T21:38:37.494Z,1019.96
2016-03-10T21:39:37.496Z,1019.98
2016-03-10T21:40:37.484Z,1020
2016-03-10T21:41:37.486Z,1020
2016-03-10T21:42:37.473Z,1019.96
2016-03-10T21:43:37.460Z,1019.99
2016-03-10T21:44:37.463Z,1020
2016-03-10T21:45:37.449Z,1020
2016-03-10T21:46:37.438Z,1019.99
2016-03-10T21:47:37.441Z,1019.97
2016-03-10T21:48:37.427Z,1020.01
2016-03-10T21:49:37.445Z,1020
2016-03-10T21:50:37.416Z,1019.99
2016-03-10T21:51:37.404Z,1020.02
2016-03-10T21:52:37.406Z,1019.99
2016-03-10T21:53:37.393Z,1019.98
2016-03-10T21:55:37.383Z,1019.98
2016-03-10T21:56:37.370Z,1020.05
2016-03-10T21:57:37.373Z,1020
2016-03-10T21:58:38.375Z,1020.06
2016-03-10T21:59:37.987Z,1020.09
2016-03-10T22:00:37.334Z,1020.06
2016-03-10T22:01:37.603Z,1020.12
2016-03-10T22:02:37.323Z,1020.09
2016-03-10T22:03:37.311Z,1020.1
2016-03-10T22:05:37.300Z,1020.11
2016-03-10T22:06:37.288Z,1020.12
2016-03-10T22:07:37.291Z,1020.08
2016-03-10T22:08:37.277Z,1020.09
2016-03-10T22:09:37.280Z,1020.08
2016-03-10T22:10:37.267Z,1020.07
2016-03-10T22:11:37.254Z,1020.09
2016-03-10T22:12:37.241Z,1020.09
2016-03-10T22:13:37.228Z,1020.1
2016-03-10T22:14:37.533Z,1020.05